Kenai Municipal Airport Kenai US
ICAO: PAEN
IATA:
Category: Medium
Scheduled Services:

Elevation: 99 ft
TransAlt. 18000 ft.

Airport Communications:
ATIS:120.3
ANCHORAGE CNTR:125.7
CTAF:121.3
RDO:122.65
GND:121.9
TWEB:117.6
TWR:121.3

PAEN Zoom In..

Runways:

(A) RW 01L length 7830 ft width 150 ft
---- / hdg 12

(B) RW 01R length 2000 ft width 60 ft
---- / hdg 12

(C) RW 19L length 2000 ft width 60 ft
---- / hdg 192

(D) RW 19R length 7830 ft width 150 ft
ILS 108.90 / hdg 192

Location; PAEN
Day. 21 / Time. 13.53 Zulu
* Altimeter: 29.36
* Temperature: 08° c. 46.4°f.
* Wind from: 040° Speed 11 kn.
Dewpoint: 02° c.
Visibility: 10 Statute Miles.
Clouds: Overcast 1000 ft.

PAEN 211353Z 04011KT 10SM OVC100 08/02 A2936 RMK AO2 SLP942 T00830022


Wind From 040°
Speed 11 kn.

 
 
jpsmedia.com for Web Design SOUNDCLOUD worldairports.se 2018   terms of use